EGLCLIRP

Guest
Details From EGLC - London City
To LIRP - Pisa
Flight Number -
Tags Generated
Created
Modified
Stats Distance 629 nm / 1,164 km
Max Altitude 0 ft / 0 m
Waypoints 4
Social Downloads 2
Likes 0
Share VATSIM

Download

Looking for another format? Having issues loading an existing format? Contact us
Advertisement - Login to hide

Notes

Generated

Route

EGLC PENDU PIN93 LIRP

ID Type Via Altitude Latitude Longitude Leg Dist Tot Dist Heading (true) Name
O EGLC APT - 0 ft / 0 m 51.50558˚ 0.04414˚ - 0 nm - -
PENDU FIX - 0 ft / 0 m 47.34889˚ 6.03278˚ 341 nm 341 nm 135° / 139° -
PIN93 FIX - 0 ft / 0 m 43.80259˚ 10.18060˚ 275 nm 617 nm 139° / 142° -
O LIRP APT - 0 ft / 0 m 43.67384˚ 10.38072˚ 11 nm 628 nm 132° / 132° -

Altitude Profile

Advertisement - Login to hide

Weather


0- 5 10 15 20 25 30 35+ Temperature / ° C

Clouds and Precipitation
Forecast for 2017-12-13 06:00 UTC. Updated an hour ago

Ground ~20,000 ft ~40,000 ft Winds

EGLC

Details ICAO EGLC (LCY)
Name London City
Region United Kingdom
Timezone Europe/London (UTC+0.0)
Stats Elevation 19 ft / 6 m (AMSL)
Location 51.505231° 0.055175°
Runways 1
Magnetic Variation 0.385° W

METAR

EGLC 130420Z AUTO 24010KT 9999 FEW013 BKN021 09/07 Q1000

Decode

TAF

Not found

Departure Runways

ID Width Length Bearing (true) Bearing (mag) Surface Threshold Offset Overrun Length
09 98 ft / 30 m 4,931 ft / 1,503 m 92.89° 93.27° Concrete 322 ft / 98 m 164 ft / 50 m
27 98 ft / 30 m 4,931 ft / 1,503 m 272.91° 273.29° Concrete 243 ft / 74 m 279 ft / 85 m

LIRP

Details ICAO LIRP (PSA)
Name PISA
Region Italy
Timezone Europe/Rome (UTC+1.0)
Stats Elevation 6 ft / 2 m (AMSL)
Location 43.683883° 10.392724°
Runways 2
Magnetic Variation 2.703° E

METAR

LIRP 130345Z 25007KT 9999 FEW025 09/07 Q1016 NOSIG

Decode

TAF

TAF LIRP 122300Z 1300/1324 15005KT 9999 SCT030 SCT050 TEMPO 1300/1306 22010KT 5000 RA BR TEMPO 1318/1324 3000 RA BR

Decode

Destination Runways

ID Width Length Bearing (true) Bearing (mag) Surface Threshold Offset Overrun Length
04L 141 ft / 43 m 9,158 ft / 2,791 m 36.70° 34.00° Asphalt 979 ft / 298 m 0 ft / 0 m
04R 148 ft / 45 m 9,819 ft / 2,993 m 36.72° 34.02° Asphalt 490 ft / 149 m 0 ft / 0 m
22L 148 ft / 45 m 9,819 ft / 2,993 m 216.73° 214.03° Asphalt 843 ft / 257 m 0 ft / 0 m
22R 141 ft / 43 m 9,158 ft / 2,791 m 216.72° 214.02° Asphalt 0 ft / 0 m 0 ft / 0 m

Approach Navaids

Runway Type Ident Frequency Range Bearing (true) Bearing (mag) Slope Elevation
04R Localiser IPI 109.70 MHz 18 nm / 33 km 36.76° 34.06° - 7 ft / 2 m (AMSL)
04R Glidescope IPI 109.70 MHz 10 nm / 19 km 36.72° 34.02° 3.00° 3 ft / 1 m (AMSL)